Time;durP1;ratioP1;P1;durP2;ratioP2;P2;SDS_P1;SDS_P2;PMS_P1;PMS_P2;Temp;Humidity;BMP_temperature;BMP_pressure;BME280_temperature;BME280_humidity;BME280_pressure;Samples;Min_cycle;Max_cycle;Signal;HPM_P1;HPM_P2
2022/05/25 00:01:48;;;;;;;3.43;1.63;;;11.90;99.90;;;;;;4988009;28;20233;-73
2022/05/25 00:04:16;;;;;;;2.57;1.90;;;11.80;99.90;;;;;;4985686;28;20228;-72
2022/05/25 00:06:43;;;;;;;2.03;1.80;;;11.70;99.90;;;;;;4985870;28;20604;-73
2022/05/25 00:09:11;;;;;;;4.00;2.10;;;11.70;99.90;;;;;;4989166;28;20249;-72
2022/05/25 00:11:37;;;;;;;5.43;2.03;;;11.70;99.90;;;;;;4991616;28;20207;-71
2022/05/25 00:14:04;;;;;;;2.00;1.70;;;11.90;99.90;;;;;;4986672;28;20600;-72
2022/05/25 00:16:31;;;;;;;2.67;1.87;;;11.90;99.90;;;;;;4988680;28;20231;-72
2022/05/25 00:21:44;;;;;;;7.50;2.03;;;12.00;99.90;;;;;;4989319;28;20242;-71
2022/05/25 00:24:10;;;;;;;4.87;1.80;;;12.20;99.90;;;;;;4989259;28;20200;-70
2022/05/25 00:26:37;;;;;;;2.30;2.00;;;12.10;99.90;;;;;;4986180;28;20226;-73
2022/05/25 00:29:04;;;;;;;2.53;1.90;;;12.20;99.90;;;;;;4990323;28;20198;-72
2022/05/25 00:31:32;;;;;;;2.00;1.60;;;12.20;99.90;;;;;;4986144;28;20204;-71
2022/05/25 00:33:59;;;;;;;5.27;1.90;;;12.20;99.90;;;;;;4987363;28;20196;-71
2022/05/25 00:36:26;;;;;;;2.13;1.70;;;12.10;99.90;;;;;;4985314;28;20570;-73
2022/05/25 00:38:53;;;;;;;3.00;1.77;;;11.90;99.90;;;;;;4988094;28;20282;-71
2022/05/25 00:41:24;;;;;;;3.03;1.73;;;12.00;99.90;;;;;;4981432;28;20291;-71
2022/05/25 00:43:51;;;;;;;2.37;1.50;;;12.10;99.90;;;;;;4990574;28;20206;-71
2022/05/25 00:46:19;;;;;;;2.13;1.73;;;12.00;99.90;;;;;;4989850;28;20235;-73
2022/05/25 00:48:52;;;;;;;1.63;1.53;;;12.00;99.90;;;;;;4987969;28;20582;-72
2022/05/25 00:51:28;;;;;;;2.77;1.53;;;12.00;99.90;;;;;;4990672;28;20202;-70
2022/05/25 00:54:01;;;;;;;3.10;1.77;;;12.00;99.90;;;;;;4981749;28;20200;-72
2022/05/25 00:56:30;;;;;;;2.67;1.70;;;11.90;99.90;;;;;;4986044;28;20225;-74
2022/05/25 00:59:02;;;;;;;1.73;1.40;;;11.80;99.90;;;;;;4983304;28;20703;-73
2022/05/25 01:01:29;;;;;;;1.80;1.50;;;11.80;99.90;;;;;;4982288;28;20201;-73
2022/05/25 01:03:56;;;;;;;2.30;1.67;;;11.70;99.90;;;;;;4990523;28;20211;-73
2022/05/25 01:06:43;;;;;;;2.10;1.47;;;11.50;99.90;;;;;;4980818;28;20228;-73
2022/05/25 01:09:45;;;;;;;4.57;1.60;;;11.60;99.90;;;;;;4984541;28;20603;-71
2022/05/25 01:12:40;;;;;;;2.77;1.57;;;11.60;99.90;;;;;;4980654;28;20548;-72
2022/05/25 01:15:16;;;;;;;2.20;1.50;;;11.60;99.90;;;;;;4976756;28;20861;-74
2022/05/25 01:18:05;;;;;;;3.27;1.40;;;11.50;99.90;;;;;;4989078;28;20225;-74
2022/05/25 01:20:47;;;;;;;1.77;1.40;;;11.40;99.90;;;;;;4988469;28;20272;-73
2022/05/25 01:23:31;;;;;;;2.70;1.47;;;11.20;99.90;;;;;;4981276;28;20209;-74
2022/05/25 01:26:12;;;;;;;2.00;1.30;;;11.00;99.90;;;;;;4988867;28;20221;-74
2022/05/25 01:28:53;;;;;;;2.70;1.37;;;11.10;99.90;;;;;;4988083;28;20208;-74
2022/05/25 01:31:48;;;;;;;3.77;1.53;;;11.10;99.90;;;;;;4983474;28;20200;-80
2022/05/25 01:34:17;;;;;;;1.80;1.50;;;11.10;99.90;;;;;;5003712;28;20192;-79
2022/05/25 01:37:06;;;;;;;4.33;1.50;;;11.10;99.90;;;;;;4980303;28;20230;-78
2022/05/25 01:39:38;;;;;;;4.40;1.40;;;11.20;99.90;;;;;;4987140;28;20207;-80
2022/05/25 01:42:17;;;;;;;3.23;1.40;;;11.00;99.90;;;;;;4981196;28;20201;-79
2022/05/25 01:44:51;;;;;;;2.67;1.60;;;11.10;99.90;;;;;;4989564;28;20750;-79
2022/05/25 01:47:22;;;;;;;2.93;1.50;;;10.90;99.90;;;;;;4986814;28;20232;-79
2022/05/25 01:50:10;;;;;;;3.00;1.50;;;10.90;99.90;;;;;;4983608;28;20202;-78
2022/05/25 01:52:44;;;;;;;1.60;1.50;;;10.80;99.90;;;;;;4987229;28;20193;-78
2022/05/25 01:55:20;;;;;;;1.73;1.27;;;10.70;99.90;;;;;;4984282;28;20198;-79
2022/05/25 01:57:52;;;;;;;1.87;1.30;;;10.60;99.90;;;;;;4981854;28;20689;-78
2022/05/25 02:00:37;;;;;;;2.90;1.40;;;10.60;99.90;;;;;;4986183;28;20840;-78
2022/05/25 02:06:08;;;;;;;2.07;1.63;;;10.60;99.90;;;;;;4983990;28;20312;-78
2022/05/25 02:08:50;;;;;;;2.67;1.47;;;10.40;99.90;;;;;;4989561;28;20197;-73
2022/05/25 02:11:58;;;;;;;1.67;1.40;;;10.40;99.90;;;;;;4988972;28;20192;-74
2022/05/25 02:14:40;;;;;;;1.93;1.57;;;10.60;99.90;;;;;;4970744;28;20201;-75
2022/05/25 02:17:11;;;;;;;2.63;1.70;;;10.70;99.90;;;;;;4984170;28;20235;-71
2022/05/25 02:19:43;;;;;;;1.73;1.50;;;10.70;99.90;;;;;;4989200;28;20193;-79
2022/05/25 02:22:16;;;;;;;1.63;1.53;;;10.60;99.90;;;;;;4990110;28;20188;-70
2022/05/25 02:24:54;;;;;;;2.30;1.57;;;10.60;99.90;;;;;;4985576;28;20205;-73
2022/05/25 02:27:28;;;;;;;3.10;1.60;;;10.60;99.90;;;;;;4988097;28;20304;-73
2022/05/25 02:30:04;;;;;;;3.43;1.53;;;10.60;99.90;;;;;;4986129;28;20204;-72
2022/05/25 02:32:41;;;;;;;2.43;1.40;;;10.40;99.90;;;;;;4986766;28;20703;-72
2022/05/25 02:35:09;;;;;;;3.30;1.67;;;10.30;99.90;;;;;;4986851;28;20256;-72
2022/05/25 02:37:37;;;;;;;3.33;1.70;;;10.20;99.90;;;;;;4986850;28;20228;-72
2022/05/25 02:40:07;;;;;;;2.03;1.63;;;10.10;99.90;;;;;;4982338;28;20209;-71
2022/05/25 02:42:37;;;;;;;3.97;1.77;;;10.00;99.90;;;;;;4987145;28;20209;-71
2022/05/25 02:45:05;;;;;;;2.20;1.70;;;9.90;99.90;;;;;;4982904;28;20221;-75
2022/05/25 02:47:33;;;;;;;5.23;1.93;;;9.90;99.90;;;;;;4988917;28;20212;-75
2022/05/25 02:50:00;;;;;;;4.03;1.80;;;10.00;99.90;;;;;;4985806;28;20194;-76
2022/05/25 02:52:27;;;;;;;2.97;1.60;;;10.10;99.90;;;;;;4989250;28;20676;-72
2022/05/25 02:54:53;;;;;;;2.00;1.60;;;10.20;99.90;;;;;;4988043;28;20867;-71
2022/05/25 02:57:20;;;;;;;4.50;1.80;;;10.10;99.90;;;;;;4989119;28;20249;-69
2022/05/25 02:59:47;;;;;;;3.00;1.70;;;10.00;99.90;;;;;;4986312;28;20207;-72
2022/05/25 03:02:14;;;;;;;3.87;1.80;;;10.00;99.90;;;;;;4989408;28;20227;-73
2022/05/25 03:04:41;;;;;;;2.57;1.57;;;9.90;99.90;;;;;;4982947;28;20217;-77
2022/05/25 03:07:08;;;;;;;3.90;1.70;;;9.80;99.90;;;;;;4984075;28;20611;-75
2022/05/25 03:09:36;;;;;;;2.33;1.70;;;9.80;99.90;;;;;;4979941;28;20203;-71
2022/05/25 03:12:04;;;;;;;1.53;1.43;;;9.90;99.90;;;;;;4989369;28;20202;-72
2022/05/25 03:14:31;;;;;;;2.27;1.77;;;9.90;99.90;;;;;;4987684;28;20216;-72
2022/05/25 03:17:04;;;;;;;3.67;1.83;;;9.90;99.90;;;;;;4982136;28;20283;-73
2022/05/25 03:19:31;;;;;;;3.30;1.80;;;9.80;99.90;;;;;;4989464;28;20207;-78
2022/05/25 03:21:58;;;;;;;3.17;1.80;;;9.70;99.90;;;;;;4992766;28;20210;-79
2022/05/25 03:24:24;;;;;;;3.33;1.93;;;9.70;99.90;;;;;;4988961;28;20235;-78
2022/05/25 03:26:51;;;;;;;4.70;2.00;;;9.90;99.90;;;;;;4991624;28;20502;-78
2022/05/25 03:29:19;;;;;;;2.77;1.80;;;10.10;99.90;;;;;;4990820;28;20200;-74
2022/05/25 03:31:45;;;;;;;2.97;1.77;;;10.10;99.90;;;;;;4984380;28;20208;-77
2022/05/25 03:34:12;;;;;;;2.40;1.70;;;9.90;99.90;;;;;;4985589;28;20199;-79
2022/05/25 03:36:39;;;;;;;4.03;2.07;;;9.80;99.90;;;;;;4991069;28;20319;-76
2022/05/25 03:39:05;;;;;;;2.00;1.63;;;9.80;99.90;;;;;;4980117;28;20250;-73
2022/05/25 03:41:32;;;;;;;2.70;1.73;;;9.90;99.90;;;;;;4987288;28;20670;-72
2022/05/25 03:43:58;;;;;;;4.00;1.90;;;9.80;99.90;;;;;;4983100;28;20204;-75
2022/05/25 03:46:25;;;;;;;3.40;2.00;;;9.70;99.90;;;;;;4979000;28;20227;-74
2022/05/25 03:48:52;;;;;;;2.70;2.00;;;9.60;99.90;;;;;;4989614;28;20202;-73
2022/05/25 03:51:19;;;;;;;2.47;1.90;;;9.50;99.90;;;;;;4987685;28;20198;-69
2022/05/25 03:53:46;;;;;;;6.20;2.00;;;9.50;99.90;;;;;;4986206;28;20420;-71
2022/05/25 03:56:12;;;;;;;2.60;1.80;;;9.50;99.90;;;;;;4990364;28;20220;-69
2022/05/25 03:58:39;;;;;;;2.83;1.97;;;9.50;99.90;;;;;;4986835;28;20664;-68
2022/05/25 04:01:05;;;;;;;3.83;2.00;;;9.50;99.90;;;;;;4988954;28;20206;-72
2022/05/25 04:03:32;;;;;;;3.67;2.00;;;9.70;99.90;;;;;;4987689;28;20208;-70
2022/05/25 04:05:59;;;;;;;2.53;2.00;;;9.70;99.90;;;;;;4989064;28;20265;-70
2022/05/25 04:08:25;;;;;;;3.63;2.20;;;9.70;99.90;;;;;;4980335;28;20209;-71
2022/05/25 04:10:52;;;;;;;3.33;2.10;;;9.80;99.90;;;;;;4987762;28;20208;-73
2022/05/25 04:13:20;;;;;;;3.07;2.17;;;10.00;99.90;;;;;;4991179;28;20695;-70
2022/05/25 04:15:46;;;;;;;4.63;2.33;;;10.10;99.90;;;;;;4987753;28;20201;-72
2022/05/25 04:18:13;;;;;;;4.07;2.60;;;10.10;99.90;;;;;;4981620;28;20209;-72
2022/05/25 04:20:40;;;;;;;4.33;2.33;;;10.10;99.90;;;;;;4983411;28;20259;-73
2022/05/25 04:23:11;;;;;;;3.50;2.40;;;10.20;99.90;;;;;;4990692;28;20315;-80
2022/05/25 04:25:40;;;;;;;3.83;2.70;;;10.20;99.90;;;;;;4992889;28;20576;-72
2022/05/25 04:28:07;;;;;;;2.80;2.40;;;10.10;99.90;;;;;;4998842;28;20189;-75
2022/05/25 04:30:34;;;;;;;3.67;2.30;;;10.30;99.90;;;;;;4996782;28;20224;-73
2022/05/25 04:33:01;;;;;;;6.33;2.40;;;10.30;99.90;;;;;;4982252;28;20196;-77
2022/05/25 04:35:28;;;;;;;2.80;2.10;;;10.40;99.90;;;;;;4995313;28;20211;-74
2022/05/25 04:37:56;;;;;;;4.00;2.17;;;10.60;99.90;;;;;;4981770;28;20666;-76
2022/05/25 04:40:28;;;;;;;5.40;2.20;;;10.60;99.90;;;;;;4979609;28;20197;-74
2022/05/25 04:42:56;;;;;;;3.67;2.30;;;10.80;99.90;;;;;;4990612;28;20682;-75
2022/05/25 04:45:25;;;;;;;3.20;2.17;;;10.90;99.90;;;;;;4978450;28;20223;-76
2022/05/25 04:47:54;;;;;;;4.10;2.67;;;10.90;99.90;;;;;;4982138;28;20215;-78
2022/05/25 04:50:22;;;;;;;4.43;3.07;;;11.00;99.90;;;;;;4988871;28;20654;-77
2022/05/25 04:52:49;;;;;;;5.07;2.50;;;11.10;99.90;;;;;;4983024;28;20572;-79
2022/05/25 04:58:03;;;;;;;4.07;2.40;;;11.00;99.90;;;;;;4984677;28;20213;-78
2022/05/25 05:00:30;;;;;;;3.30;2.93;;;11.10;99.90;;;;;;4984868;28;20601;-79
2022/05/25 05:02:57;;;;;;;3.93;2.50;;;11.20;99.90;;;;;;4977859;28;20612;-80
2022/05/25 05:05:23;;;;;;;4.27;2.57;;;11.20;99.90;;;;;;4984838;28;20205;-79
2022/05/25 05:07:50;;;;;;;3.17;2.33;;;11.30;99.90;;;;;;4987479;28;20217;-78
2022/05/25 05:10:17;;;;;;;5.17;2.70;;;11.30;99.90;;;;;;4983508;28;20193;-78
2022/05/25 05:12:44;;;;;;;2.97;2.33;;;11.50;99.90;;;;;;4979274;28;20197;-78
2022/05/25 05:15:12;;;;;;;4.03;2.43;;;11.50;99.90;;;;;;4982132;28;20197;-75
2022/05/25 05:17:39;;;;;;;7.83;2.90;;;11.50;99.90;;;;;;4988770;28;20240;-76
2022/05/25 05:20:07;;;;;;;2.60;2.30;;;11.60;99.90;;;;;;4980660;28;20196;-79
2022/05/25 05:22:34;;;;;;;3.03;2.47;;;11.60;99.90;;;;;;4988924;28;20212;-73
2022/05/25 05:25:01;;;;;;;2.73;2.40;;;11.80;99.90;;;;;;4983053;28;20197;-73
2022/05/25 05:27:27;;;;;;;4.30;2.80;;;11.90;99.90;;;;;;4986418;28;20229;-70
2022/05/25 05:30:00;;;;;;;3.80;2.73;;;12.00;99.90;;;;;;4979541;28;20195;-73
2022/05/25 05:32:27;;;;;;;4.93;2.50;;;12.10;99.90;;;;;;4983635;28;20204;-70
2022/05/25 05:34:54;;;;;;;4.57;2.73;;;12.20;99.90;;;;;;4983055;28;20232;-74
2022/05/25 05:37:35;;;;;;;5.30;3.20;;;12.30;99.90;;;;;;4974865;28;20218;-72
2022/05/25 05:40:04;;;;;;;3.60;2.50;;;12.40;99.90;;;;;;4977729;28;20300;-71
2022/05/25 05:42:32;;;;;;;5.37;2.60;;;12.60;99.90;;;;;;4978577;28;20205;-73
2022/05/25 05:45:03;;;;;;;4.30;2.60;;;12.60;99.90;;;;;;4982702;28;20208;-70
2022/05/25 05:47:35;;;;;;;4.47;2.50;;;12.70;99.90;;;;;;4981475;28;20253;-72
2022/05/25 05:50:05;;;;;;;4.80;2.63;;;12.90;99.90;;;;;;4987533;28;20204;-72
2022/05/25 05:52:34;;;;;;;7.40;2.70;;;13.30;99.90;;;;;;4982405;28;20710;-71
2022/05/25 05:55:02;;;;;;;5.10;2.80;;;13.60;99.90;;;;;;4986021;28;20202;-73
2022/05/25 05:57:29;;;;;;;3.97;2.60;;;13.70;99.90;;;;;;4978042;28;20526;-71
2022/05/25 05:59:56;;;;;;;4.97;2.43;;;13.70;99.90;;;;;;4982296;28;20201;-72
2022/05/25 06:02:23;;;;;;;3.60;2.10;;;13.70;99.90;;;;;;4975973;28;20205;-71
2022/05/25 06:04:49;;;;;;;4.37;2.10;;;13.50;99.90;;;;;;4979947;28;20204;-71
2022/05/25 06:07:16;;;;;;;2.47;1.90;;;13.50;99.90;;;;;;4985167;28;20223;-71
2022/05/25 06:09:43;;;;;;;2.97;1.90;;;13.50;99.90;;;;;;4985270;28;20206;-72
2022/05/25 06:12:10;;;;;;;2.97;1.80;;;13.60;99.90;;;;;;4986448;28;20557;-73
2022/05/25 06:14:37;;;;;;;2.43;1.70;;;13.60;99.90;;;;;;4985619;28;20197;-71
2022/05/25 06:19:49;;;;;;;4.20;1.80;;;13.60;99.90;;;;;;4982955;28;20206;-73
2022/05/25 06:22:18;;;;;;;3.87;1.60;;;13.60;99.90;;;;;;4983007;28;20678;-72
2022/05/25 06:24:48;;;;;;;2.30;1.40;;;13.70;99.90;;;;;;4984763;28;20209;-70
2022/05/25 06:27:15;;;;;;;4.00;1.97;;;13.70;99.90;;;;;;4986390;28;20220;-73
2022/05/25 06:29:48;;;;;;;3.03;1.80;;;13.90;99.90;;;;;;4988007;28;20613;-71
2022/05/25 06:32:27;;;;;;;2.70;1.80;;;14.10;99.90;;;;;;4985643;28;20205;-71
2022/05/25 06:34:54;;;;;;;2.80;1.53;;;14.30;99.90;;;;;;4983969;28;20258;-71
2022/05/25 06:37:25;;;;;;;2.10;1.50;;;14.30;99.90;;;;;;4981696;28;20230;-71
2022/05/25 06:39:52;;;;;;;3.00;1.60;;;14.40;99.90;;;;;;4984365;28;20222;-73
2022/05/25 06:42:20;;;;;;;4.40;1.60;;;14.40;99.90;;;;;;4986273;28;20208;-71
2022/05/25 06:44:46;;;;;;;2.00;1.70;;;14.50;99.90;;;;;;4987351;28;20266;-71
2022/05/25 06:47:17;;;;;;;1.60;1.40;;;14.70;99.90;;;;;;4980637;28;21770;-69
2022/05/25 06:49:44;;;;;;;3.03;1.50;;;14.90;99.90;;;;;;4984440;28;20197;-72
2022/05/25 06:52:13;;;;;;;2.47;1.50;;;15.30;99.90;;;;;;4988770;28;20198;-72
2022/05/25 06:54:42;;;;;;;1.50;1.30;;;15.60;99.90;;;;;;4984852;28;20193;-73
2022/05/25 06:57:08;;;;;;;6.40;1.50;;;15.90;99.90;;;;;;4989151;28;20212;-70
2022/05/25 06:59:35;;;;;;;3.03;1.40;;;16.60;99.90;;;;;;4991784;28;20307;-70
2022/05/25 07:02:02;;;;;;;2.33;1.20;;;17.40;99.90;;;;;;4987065;28;20205;-71
2022/05/25 07:04:29;;;;;;;2.73;1.13;;;18.40;99.90;;;;;;4992308;28;20239;-71
2022/05/25 07:07:03;;;;;;;3.40;1.00;;;19.20;99.90;;;;;;4988558;28;20221;-72
2022/05/25 07:09:33;;;;;;;2.23;1.10;;;19.90;99.90;;;;;;4987322;28;20224;-70
2022/05/25 07:11:59;;;;;;;2.70;0.93;;;20.30;99.90;;;;;;4980873;28;20693;-70
2022/05/25 07:14:27;;;;;;;2.43;1.10;;;20.90;99.90;;;;;;4978327;28;20205;-70
2022/05/25 07:16:55;;;;;;;3.23;1.00;;;21.20;99.90;;;;;;4991464;28;20252;-70
2022/05/25 07:19:21;;;;;;;1.70;0.95;;;21.30;99.90;;;;;;4988945;28;20228;-70
2022/05/25 07:21:48;;;;;;;2.72;1.10;;;21.10;99.90;;;;;;4987322;28;20225;-70
2022/05/25 07:24:15;;;;;;;0.90;0.80;;;21.30;99.90;;;;;;4984968;28;20780;-70
2022/05/25 07:26:42;;;;;;;1.20;0.90;;;21.60;99.90;;;;;;4991129;28;20225;-68
2022/05/25 07:29:08;;;;;;;2.92;1.20;;;21.70;99.90;;;;;;4988891;28;20189;-70
2022/05/25 07:31:47;;;;;;;2.80;0.90;;;21.00;99.90;;;;;;4983434;28;20256;-70
2022/05/25 07:34:24;;;;;;;2.22;1.10;;;21.10;99.90;;;;;;4988620;28;20676;-71
2022/05/25 07:36:55;;;;;;;2.67;0.90;;;21.10;99.90;;;;;;4986312;28;20217;-72
2022/05/25 07:39:28;;;;;;;2.07;1.40;;;20.80;99.90;;;;;;4990583;28;20209;-72
2022/05/25 07:41:58;;;;;;;3.77;1.10;;;20.70;99.90;;;;;;4978222;28;20205;-71
2022/05/25 07:44:33;;;;;;;4.73;1.30;;;19.80;99.90;;;;;;4979661;28;20598;-68
2022/05/25 07:47:00;;;;;;;1.57;1.00;;;19.60;99.90;;;;;;4980678;28;20223;-70
2022/05/25 07:49:27;;;;;;;1.20;0.90;;;19.70;99.90;;;;;;4987095;28;20570;-71
2022/05/25 07:51:54;;;;;;;2.00;0.90;;;19.50;99.90;;;;;;4985854;28;20212;-71
2022/05/25 07:54:22;;;;;;;4.17;0.90;;;19.30;99.90;;;;;;4978908;28;20197;-71
2022/05/25 07:56:48;;;;;;;2.20;1.00;;;19.30;99.90;;;;;;4978986;28;20224;-73
2022/05/25 07:59:16;;;;;;;1.43;1.00;;;19.40;99.90;;;;;;4982259;28;20196;-73
2022/05/25 08:07:24;;;;;;;1.80;1.07;;;19.50;99.90;;;;;;4986222;28;20228;-73
2022/05/25 08:09:54;;;;;;;2.53;0.97;;;19.60;99.90;;;;;;4989283;28;20296;-74
2022/05/25 08:12:23;;;;;;;1.80;0.87;;;19.40;99.90;;;;;;4987107;28;20543;-72
2022/05/25 08:14:49;;;;;;;0.83;0.70;;;19.50;99.90;;;;;;4983944;28;20201;-73
2022/05/25 08:17:16;;;;;;;4.10;1.00;;;19.70;99.90;;;;;;4986896;28;20237;-72
2022/05/25 08:19:43;;;;;;;1.77;0.90;;;19.80;99.90;;;;;;4980994;28;20205;-71
2022/05/25 08:22:10;;;;;;;1.63;0.97;;;20.00;99.90;;;;;;4987253;28;20201;-72
2022/05/25 08:24:36;;;;;;;1.93;0.87;;;20.00;99.90;;;;;;4985508;28;20204;-74
2022/05/25 08:27:04;;;;;;;2.00;0.80;;;20.20;99.90;;;;;;4983946;28;20233;-74
2022/05/25 08:29:31;;;;;;;0.83;0.63;;;20.30;99.90;;;;;;4981386;28;20627;-72
2022/05/25 08:31:58;;;;;;;2.03;0.70;;;20.40;99.90;;;;;;4984222;28;20657;-73
2022/05/25 08:34:26;;;;;;;0.88;0.65;;;20.60;99.90;;;;;;4991743;28;20197;-71
2022/05/25 08:36:54;;;;;;;1.98;0.90;;;20.60;99.90;;;;;;4982945;28;20221;-73
2022/05/25 08:39:20;;;;;;;0.80;0.70;;;20.70;99.90;;;;;;4985657;28;20209;-71
2022/05/25 08:41:51;;;;;;;2.72;0.80;;;20.50;99.90;;;;;;4978754;28;20200;-71
2022/05/25 08:44:20;;;;;;;1.15;0.75;;;20.70;99.90;;;;;;4987891;28;20205;-72
2022/05/25 08:46:46;;;;;;;1.98;0.85;;;20.80;99.90;;;;;;4984771;28;20315;-72
2022/05/25 08:49:16;;;;;;;1.58;0.75;;;20.90;99.90;;;;;;4982725;28;20681;-71
2022/05/25 08:51:52;;;;;;;1.33;0.80;;;21.00;99.90;;;;;;4978637;28;20188;-72
2022/05/25 08:54:20;;;;;;;1.30;0.70;;;21.10;99.90;;;;;;4982449;28;20596;-72
2022/05/25 08:56:50;;;;;;;2.30;0.80;;;21.00;99.90;;;;;;4983221;28;20550;-72
2022/05/25 08:59:32;;;;;;;1.75;0.80;;;21.10;99.90;;;;;;4976060;28;20204;-72
2022/05/25 09:02:25;;;;;;;0.70;0.70;;;21.20;99.90;;;;;;4985442;28;20202;-73
2022/05/25 09:05:07;;;;;;;0.88;0.70;;;20.90;99.90;;;;;;4964261;28;20204;-72
2022/05/25 09:07:49;;;;;;;2.17;0.80;;;21.00;99.90;;;;;;4978511;28;20250;-70
2022/05/25 09:10:18;;;;;;;0.60;0.60;;;21.20;99.90;;;;;;4980943;28;20555;-72
2022/05/25 09:13:14;;;;;;;1.52;0.80;;;21.10;99.90;;;;;;4982186;28;20189;-72
2022/05/25 09:18:35;;;;;;;3.03;0.65;;;21.20;99.90;;;;;;4980483;28;20213;-72
2022/05/25 09:21:06;;;;;;;1.00;0.70;;;21.30;99.90;;;;;;4980322;28;20205;-69
2022/05/25 09:23:35;;;;;;;0.90;0.52;;;21.60;99.90;;;;;;4983197;28;20208;-71
2022/05/25 09:26:02;;;;;;;0.70;0.50;;;21.80;99.90;;;;;;4979619;28;20681;-72
2022/05/25 09:28:33;;;;;;;1.33;0.60;;;21.70;99.90;;;;;;4983159;28;20312;-71
2022/05/25 09:31:02;;;;;;;4.47;0.70;;;21.50;99.90;;;;;;4973824;28;20946;-72
2022/05/25 09:33:38;;;;;;;0.47;0.45;;;21.20;99.90;;;;;;4977508;28;20664;-72
2022/05/25 09:36:22;;;;;;;0.85;0.60;;;21.00;99.90;;;;;;4984369;28;20708;-71
2022/05/25 09:38:59;;;;;;;0.60;0.60;;;20.70;99.90;;;;;;4975785;28;20201;-71
2022/05/25 09:41:27;;;;;;;1.30;0.70;;;20.20;99.90;;;;;;4977701;28;20200;-72
2022/05/25 09:43:58;;;;;;;1.17;0.70;;;20.10;99.90;;;;;;4981274;28;20490;-74
2022/05/25 09:46:39;;;;;;;1.63;0.80;;;20.30;99.90;;;;;;4975352;28;20228;-69
2022/05/25 09:49:11;;;;;;;2.95;1.40;;;20.20;99.90;;;;;;4973251;28;20202;-73
2022/05/25 09:51:50;;;;;;;2.00;0.70;;;20.50;99.90;;;;;;4978661;28;20578;-75
2022/05/25 09:54:26;;;;;;;1.92;0.70;;;20.90;99.90;;;;;;4977857;28;20200;-71
2022/05/25 09:56:58;;;;;;;1.23;0.90;;;21.00;99.90;;;;;;4981395;28;20221;-75
2022/05/25 09:59:49;;;;;;;1.00;0.70;;;20.80;99.90;;;;;;4979411;28;20684;-75
2022/05/25 10:02:30;;;;;;;1.95;0.63;;;20.80;99.90;;;;;;4976857;28;20192;-73
2022/05/25 10:05:10;;;;;;;3.70;0.70;;;21.00;99.90;;;;;;4978078;28;20196;-72
2022/05/25 10:08:14;;;;;;;0.50;0.50;;;21.30;99.90;;;;;;4979741;28;20220;-71
2022/05/25 10:10:55;;;;;;;1.30;0.70;;;21.20;99.90;;;;;;4983663;28;20210;-68
2022/05/25 10:13:25;;;;;;;1.73;0.60;;;21.20;99.90;;;;;;4980149;28;20254;-69
2022/05/25 10:15:53;;;;;;;1.25;0.60;;;21.40;99.90;;;;;;4986512;28;20251;-72
2022/05/25 10:18:39;;;;;;;3.65;0.70;;;21.10;99.90;;;;;;4986764;28;20224;-70
2022/05/25 10:21:11;;;;;;;1.13;0.60;;;21.40;99.90;;;;;;4982668;28;20193;-71
2022/05/25 10:23:41;;;;;;;1.60;0.60;;;21.70;99.90;;;;;;4987434;28;20205;-72
2022/05/25 10:26:19;;;;;;;0.47;0.45;;;22.00;99.90;;;;;;4985346;28;20228;-68
2022/05/25 10:28:52;;;;;;;0.85;0.50;;;22.30;99.90;;;;;;4988814;28;20247;-71
2022/05/25 10:37:22;;;;;;;1.33;0.68;;;22.60;99.90;;;;;;4981229;28;20221;-73
2022/05/25 10:39:54;;;;;;;1.00;0.63;;;23.00;99.90;;;;;;4988442;28;20246;-73
2022/05/25 10:42:45;;;;;;;0.90;0.60;;;23.20;99.90;;;;;;4990084;28;20205;-72
2022/05/25 10:45:21;;;;;;;1.23;0.60;;;23.50;99.90;;;;;;4985988;28;20251;-73
2022/05/25 10:47:57;;;;;;;1.10;0.63;;;23.70;99.90;;;;;;4980392;28;20248;-73
2022/05/25 10:50:45;;;;;;;2.15;0.70;;;23.60;99.90;;;;;;4984667;28;20228;-74
2022/05/25 10:56:54;;;;;;;0.88;0.50;;;23.60;99.90;;;;;;4984141;28;20264;-75
2022/05/25 10:59:33;;;;;;;1.05;0.50;;;23.30;99.90;;;;;;4987458;28;20203;-72
2022/05/25 11:02:15;;;;;;;2.40;0.70;;;23.20;99.90;;;;;;4985779;28;20617;-73
2022/05/25 11:04:52;;;;;;;2.63;0.60;;;22.90;99.90;;;;;;4988135;28;20661;-75
2022/05/25 11:07:19;;;;;;;2.47;0.63;;;22.40;99.90;;;;;;4983586;28;20247;-73
2022/05/25 11:10:06;;;;;;;2.03;0.70;;;22.60;99.90;;;;;;4992134;28;20204;-73
2022/05/25 11:13:26;;;;;;;0.60;0.50;;;22.70;99.90;;;;;;4983895;28;20193;-74
2022/05/25 11:15:58;;;;;;;1.83;0.88;;;22.80;99.90;;;;;;4910300;29;20660;-72
2022/05/25 11:19:03;;;;;;;2.60;0.47;;;23.20;99.90;;;;;;4976530;28;20219;-75
2022/05/25 11:21:42;;;;;;;4.00;2.60;;;23.00;99.90;;;;;;4988188;28;20204;-74
2022/05/25 11:24:18;;;;;;;0.90;0.60;;;22.70;99.90;;;;;;4978647;28;20427;-74
2022/05/25 11:27:04;;;;;;;1.25;0.60;;;23.00;99.90;;;;;;4985904;28;20231;-74
2022/05/25 11:29:39;;;;;;;1.10;0.50;;;22.50;99.90;;;;;;4984212;28;20205;-74
2022/05/25 11:32:08;;;;;;;0.40;0.40;;;22.40;99.90;;;;;;4983184;28;20228;-73
2022/05/25 11:35:11;;;;;;;0.93;0.60;;;22.40;99.90;;;;;;4992540;28;20209;-74
2022/05/25 11:38:08;;;;;;;0.68;0.50;;;22.40;99.90;;;;;;4988710;28;20606;-74
2022/05/25 11:40:44;;;;;;;0.70;0.57;;;22.20;99.90;;;;;;4975588;28;20205;-73
2022/05/25 11:43:34;;;;;;;0.60;0.40;;;22.10;99.90;;;;;;4983552;28;20288;-76
2022/05/25 11:46:38;;;;;;;1.60;0.50;;;21.90;99.90;;;;;;4949237;28;20205;-75
2022/05/25 11:49:38;;;;;;;2.65;1.23;;;21.90;99.90;;;;;;4981939;28;20201;-73
2022/05/25 11:52:11;;;;;;;0.77;0.63;;;22.30;99.90;;;;;;4983492;28;20716;-73
2022/05/25 11:55:04;;;;;;;0.98;0.60;;;22.60;99.90;;;;;;4979332;28;20204;-71
2022/05/25 11:57:45;;;;;;;1.42;0.60;;;22.70;99.90;;;;;;4977814;28;20240;-71
2022/05/25 12:00:30;;;;;;;1.70;0.57;;;22.90;99.90;;;;;;4982006;28;20200;-73
2022/05/25 12:03:37;;;;;;;2.90;0.50;;;23.00;99.90;;;;;;4988277;28;20200;-73
2022/05/25 12:06:24;;;;;;;0.60;0.60;;;23.10;99.90;;;;;;4985281;28;20659;-74
2022/05/25 12:09:12;;;;;;;0.70;0.70;;;23.40;99.90;;;;;;4982613;28;20228;-73
2022/05/25 12:12:15;;;;;;;0.55;0.52;;;23.30;99.90;;;;;;4985978;28;20207;-73
2022/05/25 12:15:03;;;;;;;1.73;0.60;;;23.50;99.90;;;;;;4983285;28;20265;-74
2022/05/25 12:17:50;;;;;;;0.98;0.63;;;23.60;99.90;;;;;;4986114;28;20636;-70
2022/05/25 12:20:27;;;;;;;1.48;0.60;;;23.30;99.90;;;;;;4977986;28;20212;-73
2022/05/25 12:23:00;;;;;;;1.02;0.60;;;23.40;99.90;;;;;;4984898;28;20200;-73
2022/05/25 12:25:27;;;;;;;2.00;0.52;;;23.60;99.90;;;;;;4982057;28;20209;-73
2022/05/25 12:27:57;;;;;;;0.93;0.55;;;23.60;99.90;;;;;;4982371;28;20232;-72
2022/05/25 12:30:37;;;;;;;1.90;0.40;;;23.90;99.90;;;;;;4983021;28;20197;-73
2022/05/25 12:33:07;;;;;;;1.38;0.50;;;24.20;99.90;;;;;;4979190;28;20728;-72
2022/05/25 12:35:36;;;;;;;0.60;0.60;;;24.40;99.70;;;;;;4990529;28;20208;-72
2022/05/25 12:38:07;;;;;;;0.70;0.52;;;24.50;99.90;;;;;;4980683;28;20701;-75
2022/05/25 12:41:04;;;;;;;2.40;0.52;;;24.30;99.20;;;;;;4981643;28;20205;-72
2022/05/25 12:43:40;;;;;;;0.47;0.40;;;24.20;98.40;;;;;;4953281;28;20197;-70
2022/05/25 12:49:01;;;;;;;0.70;0.40;;;23.20;99.90;;;;;;4981910;28;20217;-73
2022/05/25 12:51:43;;;;;;;0.55;0.50;;;23.40;99.80;;;;;;4984845;28;20689;-69
2022/05/25 12:54:25;;;;;;;1.25;0.70;;;23.10;99.50;;;;;;4980493;28;20312;-72
2022/05/25 12:56:53;;;;;;;0.82;0.50;;;23.00;99.90;;;;;;4989333;28;20240;-74
2022/05/25 12:59:29;;;;;;;0.50;0.50;;;23.20;99.90;;;;;;4980091;28;20198;-75
2022/05/25 13:02:18;;;;;;;0.63;0.52;;;23.30;99.90;;;;;;4984430;28;20594;-72
2022/05/25 13:04:57;;;;;;;1.05;0.50;;;23.30;99.60;;;;;;4980809;28;20201;-73
2022/05/25 13:07:45;;;;;;;1.20;0.50;;;23.40;99.70;;;;;;4985445;28;20278;-74
2022/05/25 13:10:32;;;;;;;0.60;0.45;;;23.40;99.90;;;;;;4987374;28;20259;-73
2022/05/25 13:13:48;;;;;;;0.40;0.40;;;23.90;99.90;;;;;;5060992;28;20599;-64
2022/05/25 13:16:45;;;;;;;0.95;0.50;;;24.00;98.90;;;;;;5039101;28;20191;-64
2022/05/25 13:19:33;;;;;;;2.55;0.50;;;23.90;99.50;;;;;;5035148;28;20190;-65
2022/05/25 13:22:02;;;;;;;0.60;0.40;;;24.20;98.70;;;;;;5041458;28;20201;-65
2022/05/25 13:24:48;;;;;;;2.88;0.60;;;24.30;99.20;;;;;;5036018;28;20226;-65
2022/05/25 13:27:20;;;;;;;0.75;0.40;;;23.70;99.20;;;;;;5041108;28;20201;-65
2022/05/25 13:30:07;;;;;;;0.52;0.45;;;23.40;99.50;;;;;;5040527;28;20191;-65
2022/05/25 13:32:39;;;;;;;2.88;0.52;;;23.40;99.00;;;;;;5033344;28;20462;-65
2022/05/25 13:35:28;;;;;;;0.90;0.60;;;23.60;99.10;;;;;;5041889;28;20215;-65
2022/05/25 13:38:07;;;;;;;1.17;0.40;;;24.30;99.30;;;;;;5037696;28;20568;-65
2022/05/25 13:40:41;;;;;;;0.52;0.50;;;24.60;98.00;;;;;;5042865;28;20195;-65
2022/05/25 13:43:12;;;;;;;2.70;0.50;;;24.50;97.50;;;;;;5035090;28;20201;-65
2022/05/25 13:45:43;;;;;;;2.40;0.50;;;24.20;98.20;;;;;;5035509;28;20223;-65
2022/05/25 13:48:13;;;;;;;0.85;0.50;;;23.70;97.30;;;;;;5037707;28;20207;-65
2022/05/25 13:50:43;;;;;;;0.50;0.50;;;23.30;98.10;;;;;;5034515;28;20200;-65
2022/05/25 13:53:27;;;;;;;0.82;0.40;;;23.40;97.50;;;;;;5042474;28;20215;-66